createdAt,value
2023-03-02T00:01:49.384Z,101253.48
2023-03-02T00:04:22.685Z,101251.15
2023-03-02T00:06:53.501Z,101251.32
2023-03-02T00:09:22.026Z,101249.80
2023-03-02T00:11:51.522Z,101247.91
2023-03-02T00:14:20.030Z,101247.48
2023-03-02T00:16:48.219Z,101250.60
2023-03-02T00:19:16.390Z,101246.41
2023-03-02T00:21:44.737Z,101246.86
2023-03-02T00:24:14.919Z,101246.32
2023-03-02T00:26:43.227Z,101242.25
2023-03-02T00:29:11.624Z,101241.48
2023-03-02T00:31:39.968Z,101246.86
2023-03-02T00:34:08.129Z,101246.05
2023-03-02T00:36:36.383Z,101242.95
2023-03-02T00:39:04.868Z,101241.65
2023-03-02T00:41:32.978Z,101241.36
2023-03-02T00:44:02.318Z,101244.77
2023-03-02T00:46:31.008Z,101243.29
2023-03-02T00:49:00.368Z,101241.29
2023-03-02T00:51:28.661Z,101245.77
2023-03-02T00:53:56.726Z,101243.13
2023-03-02T00:56:25.262Z,101241.05
2023-03-02T00:58:55.071Z,101238.20
2023-03-02T01:01:24.572Z,101235.36
2023-03-02T01:03:55.012Z,101237.32
2023-03-02T01:06:23.081Z,101242.71
2023-03-02T01:08:52.395Z,101242.27
2023-03-02T01:11:22.581Z,101242.73
2023-03-02T01:13:52.392Z,101242.90
2023-03-02T01:16:21.614Z,101244.15
2023-03-02T01:18:51.345Z,101236.35
2023-03-02T01:21:19.405Z,101232.89
2023-03-02T01:23:48.854Z,101234.86
2023-03-02T01:26:17.069Z,101232.45
2023-03-02T01:28:45.361Z,101232.28
2023-03-02T01:31:14.324Z,101234.23
2023-03-02T01:33:42.682Z,101231.64
2023-03-02T01:36:14.206Z,101227.77
2023-03-02T01:38:42.397Z,101228.16
2023-03-02T01:41:10.878Z,101225.48
2023-03-02T01:43:39.319Z,101226.77
2023-03-02T01:46:13.362Z,101224.13
2023-03-02T01:48:48.763Z,101225.58
2023-03-02T01:51:23.043Z,101227.31
2023-03-02T01:53:55.667Z,101226.30
2023-03-02T01:56:28.146Z,101222.71
2023-03-02T01:59:01.428Z,101210.11
2023-03-02T02:01:31.978Z,101211.27
2023-03-02T02:04:02.286Z,101211.41
2023-03-02T02:06:36.881Z,101210.46
2023-03-02T02:09:08.121Z,101215.70
2023-03-02T02:11:37.141Z,101217.48
2023-03-02T02:14:06.316Z,101218.64
2023-03-02T02:16:36.550Z,101223.48
2023-03-02T02:19:14.165Z,101226.16
2023-03-02T02:21:42.382Z,101227.20
2023-03-02T02:24:16.306Z,101225.58
2023-03-02T02:26:48.490Z,101217.88
2023-03-02T02:29:22.228Z,101212.56
2023-03-02T02:31:56.326Z,101210.23
2023-03-02T02:34:30.860Z,101211.77
2023-03-02T02:37:06.315Z,101210.56
2023-03-02T02:39:37.025Z,101207.83
2023-03-02T02:42:11.482Z,101209.20
2023-03-02T02:44:39.860Z,101205.80
2023-03-02T02:47:16.892Z,101200.92
2023-03-02T02:49:46.291Z,101196.63
2023-03-02T02:52:17.187Z,101194.00
2023-03-02T02:54:47.988Z,101189.09
2023-03-02T02:57:18.276Z,101190.45
2023-03-02T02:59:50.398Z,101192.91
2023-03-02T03:02:22.186Z,101192.35
2023-03-02T03:04:51.418Z,101190.61
2023-03-02T03:07:23.108Z,101189.84
2023-03-02T03:09:59.468Z,101189.02
2023-03-02T03:12:31.760Z,101183.71
2023-03-02T03:15:01.178Z,101183.71
2023-03-02T03:17:30.581Z,101182.33
2023-03-02T03:20:05.827Z,101183.52
2023-03-02T03:22:37.896Z,101181.05
2023-03-02T03:25:17.981Z,101181.65
2023-03-02T03:27:53.627Z,101181.23
2023-03-02T03:30:22.450Z,101178.25
2023-03-02T03:32:51.053Z,101177.70
2023-03-02T03:35:19.570Z,101174.42
2023-03-02T03:37:48.919Z,101171.26
2023-03-02T03:40:17.909Z,101177.50
2023-03-02T03:42:46.700Z,101174.80
2023-03-02T03:45:15.316Z,101170.98
2023-03-02T03:47:44.687Z,101173.67
2023-03-02T03:50:13.344Z,101172.98
2023-03-02T03:52:41.937Z,101177.81
2023-03-02T03:55:20.656Z,101178.24
2023-03-02T03:57:49.871Z,101179.64
2023-03-02T04:00:19.752Z,101173.98
2023-03-02T04:02:51.008Z,101177.28
2023-03-02T04:05:20.111Z,101176.16
2023-03-02T04:07:51.824Z,101175.41
2023-03-02T04:10:20.661Z,101174.09
2023-03-02T04:12:49.566Z,101175.90
2023-03-02T04:15:18.087Z,101170.77
2023-03-02T04:17:48.231Z,101170.73
2023-03-02T04:20:20.751Z,101169.84
2023-03-02T04:22:54.073Z,101169.95
2023-03-02T04:25:24.997Z,101168.75
2023-03-02T04:27:56.174Z,101170.41
2023-03-02T04:30:28.433Z,101170.98
2023-03-02T04:32:57.224Z,101170.48
2023-03-02T04:35:26.802Z,101169.44
2023-03-02T04:37:55.129Z,101169.64
2023-03-02T04:40:23.796Z,101164.80
2023-03-02T04:42:52.019Z,101163.84
2023-03-02T04:45:21.430Z,101164.85
2023-03-02T04:47:49.645Z,101164.48
2023-03-02T04:50:17.857Z,101163.85
2023-03-02T04:52:46.142Z,101165.23
2023-03-02T04:55:20.899Z,101167.69
2023-03-02T04:57:49.284Z,101169.65
2023-03-02T05:00:18.764Z,101169.34
2023-03-02T05:02:47.313Z,101170.70
2023-03-02T05:05:18.598Z,101178.11
2023-03-02T05:07:47.274Z,101177.45
2023-03-02T05:10:17.120Z,101178.14
2023-03-02T05:12:57.329Z,101179.80
2023-03-02T05:19:07.320Z,101176.04
2023-03-02T05:21:38.394Z,101181.55
2023-03-02T05:24:07.812Z,101185.92
2023-03-02T05:26:39.018Z,101184.20
2023-03-02T05:29:11.000Z,101184.88
2023-03-02T05:31:42.494Z,101183.40
2023-03-02T05:34:13.858Z,101184.68
2023-03-02T05:36:42.865Z,101186.16
2023-03-02T05:39:14.893Z,101188.20
2023-03-02T05:41:43.594Z,101189.52
2023-03-02T05:44:17.165Z,101193.36
2023-03-02T05:46:45.489Z,101192.10
2023-03-02T05:49:13.840Z,101195.36
2023-03-02T05:51:42.127Z,101195.95
2023-03-02T05:54:10.341Z,101196.63
2023-03-02T05:56:42.144Z,101201.94
2023-03-02T05:59:10.407Z,101203.80
2023-03-02T06:01:38.732Z,101209.54
2023-03-02T06:04:06.938Z,101213.55
2023-03-02T06:06:35.604Z,101211.64
2023-03-02T06:09:04.459Z,101206.14
2023-03-02T06:11:32.854Z,101212.20
2023-03-02T06:14:01.189Z,101218.95
2023-03-02T06:16:31.435Z,101218.73
2023-03-02T06:22:06.120Z,101227.22
2023-03-02T06:24:34.567Z,101233.95
2023-03-02T06:27:02.841Z,101241.71
2023-03-02T06:29:31.142Z,101242.23
2023-03-02T06:31:59.487Z,101243.73
2023-03-02T06:34:28.804Z,101245.55
2023-03-02T06:36:57.052Z,101244.95
2023-03-02T06:39:25.286Z,101248.50
2023-03-02T06:41:53.784Z,101248.23
2023-03-02T06:44:21.973Z,101246.83
2023-03-02T06:46:50.221Z,101248.05
2023-03-02T06:49:18.441Z,101246.07
2023-03-02T06:52:13.925Z,101245.27
2023-03-02T06:54:42.513Z,101245.62
2023-03-02T06:57:21.698Z,101248.30
2023-03-02T06:59:53.071Z,101247.27
2023-03-02T07:02:23.682Z,101248.73
2023-03-02T07:04:52.029Z,101246.88
2023-03-02T07:07:20.221Z,101246.80
2023-03-02T07:09:48.512Z,101246.96
2023-03-02T07:12:30.936Z,101247.46
2023-03-02T07:14:59.215Z,101246.28
2023-03-02T07:17:53.635Z,101248.59
2023-03-02T07:20:22.162Z,101246.02
2023-03-02T07:22:50.267Z,101239.59
2023-03-02T07:25:18.714Z,101237.48
2023-03-02T07:27:47.100Z,101240.13
2023-03-02T07:30:15.465Z,101237.96
2023-03-02T07:32:43.710Z,101238.11
2023-03-02T07:35:11.929Z,101236.24
2023-03-02T07:37:40.301Z,101231.90
2023-03-02T07:40:12.509Z,101236.05
2023-03-02T07:42:41.016Z,101230.79
2023-03-02T07:45:14.868Z,101233.30
2023-03-02T07:47:43.183Z,101231.54
2023-03-02T07:50:12.529Z,101231.14
2023-03-02T07:52:40.739Z,101230.69
2023-03-02T07:55:10.492Z,101229.05
2023-03-02T07:57:38.784Z,101228.82
2023-03-02T08:00:13.837Z,101226.36
2023-03-02T08:02:42.940Z,101223.26
2023-03-02T08:05:12.713Z,101225.63
2023-03-02T08:07:41.681Z,101217.05
2023-03-02T08:10:12.242Z,101217.15
2023-03-02T08:12:42.287Z,101220.42
2023-03-02T08:15:12.300Z,101220.27
2023-03-02T08:17:40.568Z,101217.95
2023-03-02T08:20:10.866Z,101215.72
2023-03-02T08:22:41.593Z,101215.66
2023-03-02T08:25:10.124Z,101210.81
2023-03-02T08:27:39.710Z,101209.02
2023-03-02T08:30:10.508Z,101211.98
2023-03-02T08:32:39.776Z,101210.66
2023-03-02T08:35:09.593Z,101207.44
2023-03-02T08:37:37.801Z,101209.98
2023-03-02T08:40:08.659Z,101208.77
2023-03-02T08:42:36.978Z,101210.84
2023-03-02T08:45:07.586Z,101206.96
2023-03-02T08:47:35.855Z,101210.58
2023-03-02T08:50:04.744Z,101213.66
2023-03-02T08:52:35.429Z,101212.34
2023-03-02T08:55:04.989Z,101211.44
2023-03-02T08:57:34.295Z,101217.34
2023-03-02T09:00:03.270Z,101216.95
2023-03-02T09:02:31.699Z,101214.74
2023-03-02T09:05:00.021Z,101209.80
2023-03-02T09:07:29.952Z,101206.70
2023-03-02T09:09:58.241Z,101208.65
2023-03-02T09:12:26.573Z,101206.16
2023-03-02T09:14:54.833Z,101212.41
2023-03-02T09:17:23.054Z,101212.02
2023-03-02T09:19:51.252Z,101212.17
2023-03-02T09:22:19.436Z,101209.56
2023-03-02T09:24:47.648Z,101209.98
2023-03-02T09:27:16.488Z,101211.60
2023-03-02T09:29:44.639Z,101210.08
2023-03-02T09:32:15.336Z,101208.88
2023-03-02T09:34:43.680Z,101209.52
2023-03-02T09:37:12.084Z,101210.56
2023-03-02T09:39:40.480Z,101208.09
2023-03-02T09:42:48.172Z,101208.04
2023-03-02T09:45:30.826Z,101202.58
2023-03-02T09:48:13.043Z,101203.86
2023-03-02T09:50:51.874Z,101195.67
2023-03-02T09:53:47.278Z,101194.95
2023-03-02T09:56:19.024Z,101190.39
2023-03-02T09:58:53.875Z,101189.80
2023-03-02T10:01:34.383Z,101190.31
2023-03-02T10:04:14.149Z,101185.40
2023-03-02T10:06:42.676Z,101184.17
2023-03-02T10:09:11.429Z,101184.54
2023-03-02T10:11:50.310Z,101182.86
2023-03-02T10:14:25.594Z,101181.48
2023-03-02T10:17:04.020Z,101183.02
2023-03-02T10:19:41.739Z,101178.06
2023-03-02T10:22:17.874Z,101173.23
2023-03-02T10:24:52.375Z,101175.52
2023-03-02T10:27:28.952Z,101171.45
2023-03-02T10:30:03.205Z,101169.38
2023-03-02T10:32:37.094Z,101168.46
2023-03-02T10:35:13.967Z,101168.02
2023-03-02T10:37:42.440Z,101165.75
2023-03-02T10:40:30.031Z,101163.30
2023-03-02T10:42:59.357Z,101163.34
2023-03-02T10:45:30.725Z,101161.63
2023-03-02T10:48:04.215Z,101160.61
2023-03-02T10:50:32.870Z,101158.75
2023-03-02T10:53:04.124Z,101158.44
2023-03-02T10:55:35.141Z,101155.02
2023-03-02T10:58:21.683Z,101146.46
2023-03-02T11:01:01.346Z,101146.75
2023-03-02T11:03:33.242Z,101144.17
2023-03-02T11:06:17.648Z,101143.48
2023-03-02T11:08:46.324Z,101141.46
2023-03-02T11:11:23.596Z,101138.42
2023-03-02T11:13:52.465Z,101144.26
2023-03-02T11:16:28.299Z,101135.19
2023-03-02T11:19:01.492Z,101138.36
2023-03-02T11:21:35.146Z,101134.14
2023-03-02T11:24:10.748Z,101129.10
2023-03-02T11:26:45.577Z,101129.19
2023-03-02T11:29:27.186Z,101130.77
2023-03-02T11:31:58.623Z,101123.60
2023-03-02T11:34:33.167Z,101118.10
2023-03-02T11:37:12.988Z,101120.98
2023-03-02T11:40:01.162Z,101121.10
2023-03-02T11:42:33.510Z,101120.63
2023-03-02T11:45:08.664Z,101124.42
2023-03-02T11:47:38.044Z,101123.70
2023-03-02T11:50:11.575Z,101123.98
2023-03-02T11:52:45.136Z,101122.97
2023-03-02T11:55:21.940Z,101123.98
2023-03-02T11:57:54.053Z,101120.92
2023-03-02T12:00:30.916Z,101118.02
2023-03-02T12:03:02.572Z,101120.54
2023-03-02T12:05:35.152Z,101116.50
2023-03-02T12:08:06.703Z,101115.21
2023-03-02T12:10:39.950Z,101111.64
2023-03-02T12:13:19.506Z,101115.17
2023-03-02T12:15:50.074Z,101113.43
2023-03-02T12:18:43.530Z,101108.15
2023-03-02T12:21:14.448Z,101109.89
2023-03-02T12:23:57.597Z,101109.21
2023-03-02T12:26:31.481Z,101111.64
2023-03-02T12:29:23.741Z,101109.08
2023-03-02T12:31:54.902Z,101100.56
2023-03-02T12:34:33.143Z,101098.23
2023-03-02T12:37:05.932Z,101098.62
2023-03-02T12:40:03.287Z,101092.38
2023-03-02T12:42:52.486Z,101091.41
2023-03-02T12:45:41.699Z,101087.94
2023-03-02T12:48:28.000Z,101085.02
2023-03-02T12:51:01.092Z,101085.94
2023-03-02T12:53:30.499Z,101082.44
2023-03-02T12:56:11.678Z,101074.64
2023-03-02T12:58:40.117Z,101074.48
2023-03-02T13:01:20.092Z,101070.12
2023-03-02T13:03:52.710Z,101071.89
2023-03-02T13:06:25.107Z,101072.17
2023-03-02T13:09:00.805Z,101072.97
2023-03-02T13:11:33.229Z,101069.97
2023-03-02T13:14:17.385Z,101068.37
2023-03-02T13:16:55.089Z,101060.05
2023-03-02T13:19:24.422Z,101059.11
2023-03-02T13:21:53.222Z,101058.05
2023-03-02T13:24:46.146Z,101056.08
2023-03-02T13:27:52.033Z,101053.80
2023-03-02T13:30:27.018Z,101047.59
2023-03-02T13:38:24.343Z,101041.95
2023-03-02T13:41:25.693Z,101039.84
2023-03-02T13:43:56.936Z,101042.84
2023-03-02T13:46:39.188Z,101039.02
2023-03-02T13:49:37.042Z,101039.76
2023-03-02T13:52:27.682Z,101034.33
2023-03-02T13:54:58.691Z,101034.40
2023-03-02T13:57:32.477Z,101029.18
2023-03-02T14:00:05.459Z,101027.91
2023-03-02T14:02:36.247Z,101022.67
2023-03-02T14:05:11.299Z,101021.03
2023-03-02T14:07:42.261Z,101016.14
2023-03-02T14:10:15.816Z,101008.71
2023-03-02T14:12:54.649Z,101001.33
2023-03-02T14:15:26.081Z,101002.44
2023-03-02T14:18:34.029Z,100994.34
2023-03-02T14:21:05.237Z,100992.19
2023-03-02T14:23:36.310Z,100986.30
2023-03-02T14:26:20.528Z,100981.80
2023-03-02T14:29:04.682Z,100976.81
2023-03-02T14:31:38.481Z,100975.73
2023-03-02T14:34:15.131Z,100975.14
2023-03-02T14:36:48.129Z,100967.98
2023-03-02T14:39:52.008Z,100968.31
2023-03-02T14:43:30.813Z,100968.09
2023-03-02T14:46:01.708Z,100968.02
2023-03-02T14:49:11.970Z,100964.61
2023-03-02T14:52:30.161Z,100960.64
2023-03-02T14:55:29.755Z,100959.73
2023-03-02T14:58:06.608Z,100965.43
2023-03-02T15:00:37.745Z,100960.48
2023-03-02T15:03:10.738Z,100959.92
2023-03-02T15:05:44.211Z,100954.77
2023-03-02T15:08:20.138Z,100955.23
2023-03-02T15:10:52.118Z,100952.48
2023-03-02T15:13:22.991Z,100953.25
2023-03-02T15:15:53.959Z,100957.41
2023-03-02T15:18:25.099Z,100953.06
2023-03-02T15:20:56.243Z,100948.59
2023-03-02T15:23:27.384Z,100946.96
2023-03-02T15:26:02.830Z,100941.81
2023-03-02T15:28:34.009Z,100940.75
2023-03-02T15:31:14.259Z,100937.16
2023-03-02T15:33:46.382Z,100937.95
2023-03-02T15:36:18.181Z,100936.36
2023-03-02T15:38:51.717Z,100934.74
2023-03-02T15:41:22.813Z,100930.86
2023-03-02T15:43:54.992Z,100929.88
2023-03-02T15:46:27.345Z,100931.29
2023-03-02T15:48:58.465Z,100931.11
2023-03-02T15:51:29.568Z,100932.96
2023-03-02T15:54:00.876Z,100930.20
2023-03-02T15:56:42.423Z,100931.34
2023-03-02T15:59:15.086Z,100933.50
2023-03-02T16:01:46.360Z,100930.05
2023-03-02T16:04:17.450Z,100933.41
2023-03-02T16:06:51.228Z,100935.20
2023-03-02T16:09:23.919Z,100932.56
2023-03-02T16:12:00.195Z,100930.30
2023-03-02T16:14:31.138Z,100930.73
2023-03-02T16:17:02.981Z,100929.35
2023-03-02T16:19:34.361Z,100928.78
2023-03-02T16:22:05.427Z,100920.96
2023-03-02T16:24:38.321Z,100923.30
2023-03-02T16:27:10.313Z,100921.41
2023-03-02T16:29:48.426Z,100929.67
2023-03-02T16:32:30.265Z,100931.13
2023-03-02T16:35:01.500Z,100930.46
2023-03-02T16:37:32.779Z,100925.89
2023-03-02T16:40:03.786Z,100928.27
2023-03-02T16:42:35.662Z,100925.86
2023-03-02T16:45:11.153Z,100924.54
2023-03-02T16:47:42.259Z,100919.29
2023-03-02T16:50:14.926Z,100925.76
2023-03-02T16:52:45.905Z,100923.40
2023-03-02T16:55:21.293Z,100922.23
2023-03-02T16:57:52.225Z,100924.09
2023-03-02T17:00:25.409Z,100924.78
2023-03-02T17:02:56.403Z,100924.10
2023-03-02T17:05:27.531Z,100922.11
2023-03-02T17:08:00.174Z,100921.29
2023-03-02T17:10:31.490Z,100922.29
2023-03-02T17:13:05.786Z,100924.67
2023-03-02T17:15:36.966Z,100927.42
2023-03-02T17:18:09.513Z,100923.74
2023-03-02T17:20:41.181Z,100922.59
2023-03-02T17:23:14.656Z,100918.43
2023-03-02T17:25:45.935Z,100919.82
2023-03-02T17:28:27.492Z,100921.08
2023-03-02T17:30:58.497Z,100921.20
2023-03-02T17:33:31.112Z,100921.74
2023-03-02T17:36:17.627Z,100924.35
2023-03-02T17:38:49.004Z,100922.36
2023-03-02T17:41:23.517Z,100921.96
2023-03-02T17:44:06.920Z,100923.39
2023-03-02T17:46:38.016Z,100921.33
2023-03-02T17:49:08.850Z,100918.23
2023-03-02T17:51:40.766Z,100913.94
2023-03-02T17:54:21.384Z,100916.25
2023-03-02T17:56:52.865Z,100915.52
2023-03-02T17:59:24.208Z,100915.09
2023-03-02T18:01:55.922Z,100910.30
2023-03-02T18:04:29.716Z,100908.70
2023-03-02T18:07:01.904Z,100902.86
2023-03-02T18:09:35.411Z,100905.17
2023-03-02T18:12:08.729Z,100905.23
2023-03-02T18:14:41.666Z,100906.50
2023-03-02T18:17:40.478Z,100908.80
2023-03-02T18:20:21.105Z,100909.08
2023-03-02T18:22:52.463Z,100910.20
2023-03-02T18:25:23.993Z,100911.55
2023-03-02T18:27:55.325Z,100908.38
2023-03-02T18:30:26.459Z,100904.53
2023-03-02T18:32:57.546Z,100903.53
2023-03-02T18:35:44.765Z,100906.74
2023-03-02T18:38:15.855Z,100907.79
2023-03-02T18:40:49.971Z,100909.64
2023-03-02T18:43:20.843Z,100906.77
2023-03-02T18:46:05.124Z,100910.20
2023-03-02T18:48:37.564Z,100909.73
2023-03-02T18:51:08.495Z,100907.23
2023-03-02T18:53:41.471Z,100907.43
2023-03-02T18:56:12.928Z,100904.60
2023-03-02T18:58:44.579Z,100901.30
2023-03-02T19:01:19.270Z,100901.13
2023-03-02T19:03:57.842Z,100898.05
2023-03-02T19:07:25.059Z,100902.47
2023-03-02T19:10:44.691Z,100896.79
2023-03-02T19:13:39.283Z,100898.44
2023-03-02T19:16:10.981Z,100894.23
2023-03-02T19:18:56.065Z,100894.77
2023-03-02T19:21:28.205Z,100893.70
2023-03-02T19:24:02.193Z,100890.72
2023-03-02T19:26:33.128Z,100894.45
2023-03-02T19:29:06.585Z,100898.85
2023-03-02T19:31:40.570Z,100893.79
2023-03-02T19:34:11.645Z,100894.93
2023-03-02T19:36:42.932Z,100893.05
2023-03-02T19:39:14.124Z,100894.64
2023-03-02T19:41:45.655Z,100894.97
2023-03-02T19:48:55.859Z,100895.70
2023-03-02T19:51:28.872Z,100897.16
2023-03-02T19:54:03.103Z,100897.41
2023-03-02T19:56:39.806Z,100896.45
2023-03-02T19:59:11.321Z,100893.13
2023-03-02T20:01:42.861Z,100896.92
2023-03-02T20:04:13.900Z,100897.02
2023-03-02T20:06:45.483Z,100899.65
2023-03-02T20:09:19.792Z,100901.31
2023-03-02T20:11:50.765Z,100901.89
2023-03-02T20:14:33.480Z,100899.54
2023-03-02T20:17:05.437Z,100904.45
2023-03-02T20:19:36.614Z,100901.69
2023-03-02T20:22:09.585Z,100902.75
2023-03-02T20:24:41.668Z,100899.33
2023-03-02T20:27:16.494Z,100899.79
2023-03-02T20:29:49.095Z,100896.05
2023-03-02T20:32:19.979Z,100894.07
2023-03-02T20:34:52.089Z,100894.14
2023-03-02T20:37:25.879Z,100891.23
2023-03-02T20:39:56.997Z,100892.02
2023-03-02T20:42:31.208Z,100891.39
2023-03-02T20:45:03.249Z,100886.38
2023-03-02T20:47:34.603Z,100885.52
2023-03-02T20:50:09.784Z,100882.98
2023-03-02T20:52:39.248Z,100877.76
2023-03-02T20:55:12.264Z,100874.20
2023-03-02T20:57:43.229Z,100870.84
2023-03-02T21:00:20.815Z,100867.63
2023-03-02T21:02:52.603Z,100867.45
2023-03-02T21:05:26.451Z,100862.89
2023-03-02T21:07:57.957Z,100862.89
2023-03-02T21:10:38.357Z,100858.86
2023-03-02T21:13:12.010Z,100861.30
2023-03-02T21:15:46.435Z,100858.55
2023-03-02T21:18:19.310Z,100857.22
2023-03-02T21:20:50.220Z,100855.56
2023-03-02T21:23:21.822Z,100851.69
2023-03-02T21:25:52.744Z,100850.42
2023-03-02T21:28:24.263Z,100847.70
2023-03-02T21:31:08.271Z,100844.98
2023-03-02T21:33:39.485Z,100842.77
2023-03-02T21:36:16.089Z,100839.64
2023-03-02T21:38:47.200Z,100836.95
2023-03-02T21:41:18.597Z,100835.09
2023-03-02T21:43:50.027Z,100830.27
2023-03-02T21:46:23.566Z,100825.95
2023-03-02T21:48:55.410Z,100822.45
2023-03-02T21:51:27.352Z,100821.84
2023-03-02T21:54:00.197Z,100820.46
2023-03-02T21:56:35.134Z,100820.33
2023-03-02T21:59:08.157Z,100814.06
2023-03-02T22:01:39.420Z,100815.59
2023-03-02T22:04:13.230Z,100818.20
2023-03-02T22:06:47.632Z,100821.23
2023-03-02T22:09:26.432Z,100822.58
2023-03-02T22:12:52.585Z,100819.07
2023-03-02T22:15:28.337Z,100814.55
2023-03-02T22:18:01.956Z,100811.84
2023-03-02T22:20:33.085Z,100808.55
2023-03-02T22:23:14.297Z,100808.83
2023-03-02T22:25:48.018Z,100809.52
2023-03-02T22:28:21.360Z,100810.80
2023-03-02T22:30:54.436Z,100811.56
2023-03-02T22:33:29.121Z,100812.33
2023-03-02T22:36:12.716Z,100813.89
2023-03-02T22:38:43.586Z,100812.26
2023-03-02T22:41:20.999Z,100813.36
2023-03-02T22:43:53.139Z,100813.80
2023-03-02T22:46:26.919Z,100804.85
2023-03-02T22:49:45.173Z,100802.02
2023-03-02T22:52:21.027Z,100806.29
2023-03-02T22:54:57.308Z,100807.34
2023-03-02T22:57:36.740Z,100809.05
2023-03-02T23:00:35.968Z,100804.48
2023-03-02T23:03:17.650Z,100799.97
2023-03-02T23:09:32.541Z,100793.14
2023-03-02T23:12:07.155Z,100789.16
2023-03-02T23:12:34.842Z,100795.56
2023-03-02T23:14:52.009Z,100784.50
2023-03-02T23:17:39.606Z,100780.16
2023-03-02T23:20:15.628Z,100779.16
2023-03-02T23:26:00.924Z,100770.46
2023-03-02T23:28:32.095Z,100769.44
2023-03-02T23:31:02.874Z,100768.38
2023-03-02T23:33:34.971Z,100765.65
2023-03-02T23:36:07.781Z,100766.36
2023-03-02T23:38:39.140Z,100763.92
2023-03-02T23:41:10.334Z,100768.65
2023-03-02T23:43:41.601Z,100766.52
2023-03-02T23:46:14.430Z,100768.46
2023-03-02T23:48:45.994Z,100766.05
2023-03-02T23:51:17.077Z,100763.23
2023-03-02T23:53:48.076Z,100759.45
2023-03-02T23:56:20.052Z,100757.12
2023-03-02T23:58:51.111Z,100754.96
